Time;durP1;ratioP1;P1;durP2;ratioP2;P2;SDS_P1;SDS_P2;PMS_P1;PMS_P2;Temp;Humidity;BMP_temperature;BMP_pressure;BME280_temperature;BME280_humidity;BME280_pressure;Samples;Min_cycle;Max_cycle;Signal;HPM_P1;HPM_P2
2021/12/20 00:00:38;;;;;;;3.20;2.20;;;;;;;1.40;97.20;97935.81;1759324;81;21057;-76
2021/12/20 00:03:05;;;;;;;3.12;2.55;;;;;;;1.39;97.21;97930.22;1789061;80;21066;-77
2021/12/20 00:05:33;;;;;;;3.95;2.33;;;;;;;1.37;97.22;97938.94;1787807;79;21012;-78
2021/12/20 00:07:59;;;;;;;2.47;2.22;;;;;;;1.39;97.35;97952.73;1790680;80;20967;-77
2021/12/20 00:10:27;;;;;;;3.25;2.47;;;;;;;1.40;97.33;97941.11;1790500;80;20940;-81
2021/12/20 00:12:57;;;;;;;3.17;2.10;;;;;;;1.40;97.30;97944.27;1790731;80;21004;-81
2021/12/20 00:15:25;;;;;;;2.33;2.02;;;;;;;1.39;97.16;97943.46;1790843;80;20990;-75
2021/12/20 00:17:53;;;;;;;4.85;3.02;;;;;;;1.36;97.07;97953.73;1789584;79;21006;-75
2021/12/20 00:20:20;;;;;;;2.52;2.10;;;;;;;1.31;97.04;97935.37;1790579;80;21013;-76
2021/12/20 00:22:47;;;;;;;3.37;3.05;;;;;;;1.30;96.97;97947.52;1790553;80;21117;-77
2021/12/20 00:25:14;;;;;;;5.95;3.37;;;;;;;1.31;97.00;97954.42;1789429;79;21074;-73
2021/12/20 00:27:40;;;;;;;5.33;2.37;;;;;;;1.31;96.94;97957.88;1788528;80;21527;-75
2021/12/20 00:30:09;;;;;;;4.85;3.20;;;;;;;1.28;96.72;97964.98;1765601;80;21754;-72
2021/12/20 00:32:35;;;;;;;3.72;3.22;;;;;;;1.26;96.63;97955.64;1765727;80;20982;-74
2021/12/20 00:35:04;;;;;;;6.90;2.72;;;;;;;1.26;96.56;97968.88;1766005;80;21543;-76
2021/12/20 00:40:22;;;;;;;11.57;2.95;;;;;;;1.24;96.10;97963.03;1772456;80;21434;-73
2021/12/20 00:42:55;;;;;;;4.08;3.37;;;;;;;1.25;96.00;97964.09;1788626;80;21046;-82
2021/12/20 00:45:23;;;;;;;3.87;3.00;;;;;;;1.26;95.73;97956.97;1789037;80;21579;-80
2021/12/20 00:47:49;;;;;;;3.47;2.40;;;;;;;1.27;95.54;97959.91;1765975;80;21106;-76
2021/12/20 00:50:17;;;;;;;4.72;3.85;;;;;;;1.24;95.02;97969.13;1766002;80;20972;-75
2021/12/20 00:52:44;;;;;;;3.83;2.50;;;;;;;1.22;94.68;97966.41;1737804;82;21082;-72
2021/12/20 00:55:12;;;;;;;2.77;1.90;;;;;;;1.19;94.54;97967.70;1788706;79;21572;-78
2021/12/20 00:57:39;;;;;;;2.77;1.85;;;;;;;1.16;94.30;97968.14;1770388;80;21019;-73
2021/12/20 01:00:07;;;;;;;2.25;1.85;;;;;;;1.18;94.31;97970.57;1745992;81;21056;-73
2021/12/20 01:02:33;;;;;;;6.17;1.77;;;;;;;1.14;94.09;97966.78;1745864;81;21010;-77
2021/12/20 01:05:00;;;;;;;3.55;2.62;;;;;;;1.11;94.08;97977.81;1741385;81;21085;-74
2021/12/20 01:07:28;;;;;;;4.58;3.25;;;;;;;1.09;94.18;97982.03;1733748;81;21161;-73
2021/12/20 01:09:59;;;;;;;3.90;2.42;;;;;;;1.07;94.29;97980.13;1770419;81;21516;-74
2021/12/20 01:12:27;;;;;;;2.65;2.20;;;;;;;1.05;94.38;97976.11;1745636;81;21011;-72
2021/12/20 01:14:58;;;;;;;2.10;1.90;;;;;;;1.05;94.51;97990.16;1714727;82;21038;-72
2021/12/20 01:17:21;;;;;;;2.72;1.70;;;;;;;1.05;94.60;97984.05;1765907;79;21027;-72
2021/12/20 01:19:48;;;;;;;3.95;2.00;;;;;;;1.03;94.66;97977.66;1742386;81;21046;-79
2021/12/20 01:22:14;;;;;;;1.90;1.77;;;;;;;1.01;94.83;97988.20;1764620;81;20990;-71
2021/12/20 01:24:40;;;;;;;2.70;2.15;;;;;;;1.01;94.96;97990.84;1768203;80;21112;-76
2021/12/20 01:27:07;;;;;;;2.75;1.87;;;;;;;1.00;95.12;97989.22;1748144;80;21050;-77
2021/12/20 01:29:35;;;;;;;1.98;1.60;;;;;;;0.98;95.40;97984.67;1723441;80;21482;-79
2021/12/20 01:32:01;;;;;;;1.77;1.67;;;;;;;0.97;95.52;97977.76;1777731;80;21215;-78
2021/12/20 01:34:28;;;;;;;2.47;1.65;;;;;;;0.96;95.61;97981.46;1749769;80;21582;-83
2021/12/20 01:36:55;;;;;;;2.52;2.33;;;;;;;0.97;95.75;97990.98;1749613;80;20943;-75
2021/12/20 01:39:23;;;;;;;2.05;1.90;;;;;;;0.98;95.91;97989.96;1777435;80;21595;-74
2021/12/20 01:41:52;;;;;;;2.17;1.85;;;;;;;1.00;95.97;97994.52;1749351;80;21042;-84
2021/12/20 01:44:18;;;;;;;1.90;1.60;;;;;;;1.00;95.99;97987.91;1793634;79;21303;-81
2021/12/20 01:46:44;;;;;;;2.10;1.80;;;;;;;1.00;96.04;97983.93;1793318;79;21009;-81
2021/12/20 01:49:14;;;;;;;3.27;3.00;;;;;;;1.01;96.15;97992.95;1776775;80;21010;-76
2021/12/20 01:52:01;;;;;;;2.02;1.92;;;;;;;1.01;96.17;97987.66;1777070;80;21043;-75
2021/12/20 01:54:15;;;;;;;2.05;1.85;;;;;;;1.01;96.22;97984.23;1797827;79;21459;-83
2021/12/20 01:56:43;;;;;;;1.67;1.52;;;;;;;1.03;96.26;97980.30;1780458;79;21112;-78
2021/12/20 01:59:09;;;;;;;1.92;1.50;;;;;;;1.04;96.32;97977.14;1816832;78;21496;-79
2021/12/20 02:01:37;;;;;;;1.80;1.60;;;;;;;1.02;96.28;97985.30;1807394;79;20943;-75
2021/12/20 02:04:07;;;;;;;2.90;2.10;;;;;;;1.02;96.34;97980.52;1804918;79;30944;-79
2021/12/20 02:06:38;;;;;;;2.45;1.90;;;;;;;1.02;96.41;97980.00;1813856;78;20935;-84
2021/12/20 02:09:09;;;;;;;3.33;1.60;;;;;;;1.04;96.41;97987.21;1779069;79;21811;-83
2021/12/20 02:11:41;;;;;;;4.70;3.33;;;;;;;1.05;96.39;97991.98;1807635;79;20970;-85
2021/12/20 02:14:08;;;;;;;2.20;2.05;;;;;;;1.03;96.32;97990.08;1780062;79;21054;-87
2021/12/20 02:16:35;;;;;;;3.12;2.75;;;;;;;1.03;96.25;97989.56;1751707;80;21089;-89
2021/12/20 02:19:05;;;;;;;3.58;2.22;;;;;;;1.02;96.21;97999.86;1807074;78;20987;-81
2021/12/20 02:21:33;;;;;;;2.72;2.45;;;;;;;1.03;96.08;97986.92;1807540;79;21003;-80
2021/12/20 02:24:00;;;;;;;3.27;2.50;;;;;;;1.05;96.04;97994.64;1780196;79;21017;-78
2021/12/20 02:26:26;;;;;;;2.72;1.98;;;;;;;1.07;95.99;97989.38;1803540;78;21054;-77
2021/12/20 02:28:54;;;;;;;2.55;2.22;;;;;;;1.08;95.86;98002.11;1799291;79;21097;-81
2021/12/20 02:39:23;;;;;;;2.47;2.27;;;;;;;1.11;95.46;97996.34;1809629;78;20924;-79
2021/12/20 02:41:50;;;;;;;3.37;2.85;;;;;;;1.10;95.40;98000.86;1804766;78;21010;-79
2021/12/20 02:44:18;;;;;;;2.50;2.00;;;;;;;1.11;95.30;98006.41;1773510;80;21073;-75
2021/12/20 02:46:51;;;;;;;2.47;2.15;;;;;;;1.12;95.26;98004.58;1772505;80;21512;-74
2021/12/20 02:49:22;;;;;;;2.50;2.00;;;;;;;1.14;95.17;98017.08;1799259;78;20962;-77
2021/12/20 02:51:51;;;;;;;2.12;1.92;;;;;;;1.15;95.16;98000.16;1804637;79;20978;-77
2021/12/20 02:54:21;;;;;;;4.85;4.03;;;;;;;1.18;95.10;98008.44;1799100;79;21066;-70
2021/12/20 02:56:48;;;;;;;2.10;1.90;;;;;;;1.16;94.83;98008.36;1811668;78;20928;-71
2021/12/20 02:59:15;;;;;;;1.95;1.82;;;;;;;1.15;94.81;98005.45;1801931;78;21063;-78
2021/12/20 03:01:46;;;;;;;2.10;1.80;;;;;;;1.16;94.82;98007.05;1795089;80;21504;-79
2021/12/20 03:04:13;;;;;;;2.65;1.87;;;;;;;1.18;94.73;98012.92;1794986;79;21650;-83
2021/12/20 03:06:58;;;;;;;2.90;1.92;;;;;;;1.16;94.64;98018.44;1766796;80;21499;-81
2021/12/20 03:09:32;;;;;;;2.35;2.12;;;;;;;1.14;94.53;98021.86;1775154;79;20947;-89
2021/12/20 03:12:00;;;;;;;1.92;1.82;;;;;;;1.12;94.45;98020.45;1802902;79;21143;-80
2021/12/20 03:14:33;;;;;;;1.50;1.40;;;;;;;1.08;94.45;98016.66;1802010;79;21599;-83
2021/12/20 03:16:57;;;;;;;2.30;2.02;;;;;;;1.09;94.62;98026.22;1799630;78;21006;-87
2021/12/20 03:19:25;;;;;;;1.72;1.62;;;;;;;1.09;94.59;98022.25;1801650;78;21038;-87
2021/12/20 03:21:51;;;;;;;4.17;1.72;;;;;;;1.09;94.51;98024.38;1776059;79;21503;-86
2021/12/20 03:24:19;;;;;;;2.33;2.02;;;;;;;1.09;94.52;98027.55;1800484;79;21531;-82
2021/12/20 03:26:45;;;;;;;3.60;3.15;;;;;;;1.09;94.50;98020.41;1803001;78;21500;-83
2021/12/20 03:29:12;;;;;;;2.33;2.15;;;;;;;1.10;94.52;98020.71;1799780;79;21394;-83
2021/12/20 03:31:38;;;;;;;2.70;1.98;;;;;;;1.12;94.57;98015.16;1779937;79;21649;-85
2021/12/20 03:34:05;;;;;;;2.52;2.05;;;;;;;1.15;94.51;98010.75;1805241;79;21582;-85
2021/12/20 03:36:32;;;;;;;5.25;2.45;;;;;;;1.14;94.43;98015.23;1758693;80;21755;-90
2021/12/20 03:38:58;;;;;;;3.52;1.98;;;;;;;1.13;94.44;98015.45;1733948;82;20964;-80
2021/12/20 03:41:26;;;;;;;1.87;1.77;;;;;;;1.09;94.72;98014.31;1770983;79;20931;-82
2021/12/20 03:43:52;;;;;;;2.98;2.72;;;;;;;1.04;95.01;98023.45;1746139;81;21480;-87
2021/12/20 03:46:18;;;;;;;2.15;1.67;;;;;;;1.03;95.23;98029.27;1715732;81;21583;-83
2021/12/20 03:48:45;;;;;;;1.98;1.77;;;;;;;1.06;95.47;98016.08;1729264;81;21155;-84
2021/12/20 03:51:11;;;;;;;1.92;1.70;;;;;;;1.07;95.61;98022.47;1766913;80;22244;-84
2021/12/20 03:53:38;;;;;;;1.70;1.60;;;;;;;1.06;95.66;98016.88;1742709;81;21034;-85
2021/12/20 03:56:05;;;;;;;2.42;1.50;;;;;;;1.07;95.81;98019.02;1720268;81;22171;-89
2021/12/20 03:58:34;;;;;;;1.75;1.65;;;;;;;1.05;95.80;98020.59;1693693;81;21039;-87
2021/12/20 04:01:05;;;;;;;2.27;2.08;;;;;;;1.00;95.92;98016.50;1739701;82;21043;-89
2021/12/20 04:03:34;;;;;;;1.55;1.47;;;;;;;1.02;96.17;98028.16;1739702;82;20920;-89
2021/12/20 04:05:59;;;;;;;1.70;1.60;;;;;;;1.01;96.23;98025.25;1805255;79;20999;-89
2021/12/20 04:08:25;;;;;;;1.60;1.50;;;;;;;1.00;96.24;98018.34;1801349;79;21015;-88
2021/12/20 04:10:51;;;;;;;2.45;1.40;;;;;;;0.99;96.16;98022.82;1772084;81;21593;-88
2021/12/20 04:13:18;;;;;;;2.20;2.00;;;;;;;0.98;96.11;98034.44;1771529;81;21834;-87
2021/12/20 04:15:46;;;;;;;1.65;1.55;;;;;;;0.98;96.24;98038.41;1785287;79;21660;-89
2021/12/20 04:18:12;;;;;;;2.12;1.92;;;;;;;0.99;96.29;98033.41;1781965;80;21011;-89
2021/12/20 04:20:39;;;;;;;2.70;2.50;;;;;;;0.99;96.25;98035.25;1770080;81;20954;-85
2021/12/20 04:23:07;;;;;;;1.52;1.42;;;;;;;0.98;96.24;98036.27;1767001;79;21541;-86
2021/12/20 04:25:34;;;;;;;2.05;1.80;;;;;;;0.97;96.26;98035.47;1746257;81;21077;-88
2021/12/20 04:28:00;;;;;;;2.45;1.90;;;;;;;0.97;96.32;98038.11;1737203;81;20994;-86
2021/12/20 04:30:29;;;;;;;3.55;1.90;;;;;;;0.99;96.39;98035.25;1732324;81;20980;-86
2021/12/20 04:32:56;;;;;;;1.92;1.75;;;;;;;1.02;96.24;98047.50;1762804;80;21036;-87
2021/12/20 04:35:24;;;;;;;2.75;1.70;;;;;;;1.02;96.12;98046.17;1772256;79;21541;-86
2021/12/20 04:37:51;;;;;;;2.62;2.05;;;;;;;1.02;95.96;98051.47;1807748;79;22272;-86
2021/12/20 04:40:20;;;;;;;2.20;2.00;;;;;;;1.04;95.85;98049.92;1782273;79;20933;-85
2021/12/20 04:42:52;;;;;;;3.58;2.08;;;;;;;1.03;95.75;98053.09;1778794;80;21493;-86
2021/12/20 04:45:18;;;;;;;2.00;1.80;;;;;;;1.05;95.77;98054.19;1782428;79;21086;-87
2021/12/20 04:47:44;;;;;;;1.60;1.50;;;;;;;1.05;95.69;98052.35;1778082;80;22085;-88
2021/12/20 04:50:11;;;;;;;2.90;1.67;;;;;;;1.04;95.58;98063.97;1760523;80;21711;-85
2021/12/20 04:52:41;;;;;;;2.30;1.80;;;;;;;1.05;95.48;98060.81;1762218;80;22200;-84
2021/12/20 04:55:11;;;;;;;4.58;2.10;;;;;;;1.06;95.48;98074.30;1787386;79;21652;-83
2021/12/20 04:57:40;;;;;;;2.27;1.75;;;;;;;1.06;95.39;98065.04;1778063;80;21051;-80
2021/12/20 05:00:10;;;;;;;2.12;1.92;;;;;;;1.06;95.38;98083.06;1790377;79;21533;-82
2021/12/20 05:02:37;;;;;;;3.42;2.45;;;;;;;1.06;95.30;98072.47;1743588;80;21780;-83
2021/12/20 05:05:08;;;;;;;3.80;2.15;;;;;;;1.05;95.21;98062.12;1790528;79;21079;-83
2021/12/20 05:07:38;;;;;;;3.10;2.20;;;;;;;1.04;95.23;98071.91;1804783;79;21047;-83
2021/12/20 05:10:08;;;;;;;2.02;1.82;;;;;;;1.05;95.22;98081.98;1793537;79;21034;-82
2021/12/20 05:12:36;;;;;;;1.90;1.72;;;;;;;1.05;95.16;98087.28;1788358;80;20918;-80
2021/12/20 05:15:04;;;;;;;2.42;2.05;;;;;;;1.05;95.07;98085.95;1787898;79;21097;-79
2021/12/20 05:17:32;;;;;;;2.58;2.00;;;;;;;1.05;95.08;98082.79;1778373;80;21050;-81
2021/12/20 05:19:58;;;;;;;7.53;4.03;;;;;;;1.05;95.01;98080.14;1769185;80;21707;-81
2021/12/20 05:22:27;;;;;;;6.17;2.83;;;;;;;1.05;95.02;98092.57;1754169;81;21570;-82
2021/12/20 05:24:53;;;;;;;2.50;2.30;;;;;;;1.06;94.86;98096.30;1735967;79;21593;-77
2021/12/20 05:27:19;;;;;;;2.20;2.00;;;;;;;1.06;94.62;98090.19;1787039;79;21031;-82
2021/12/20 05:29:50;;;;;;;3.08;2.47;;;;;;;1.06;94.56;98099.45;1799340;79;21022;-84
2021/12/20 05:32:17;;;;;;;2.25;2.00;;;;;;;1.05;94.27;98101.84;1792386;80;21568;-82
2021/12/20 05:34:45;;;;;;;2.08;1.70;;;;;;;1.06;94.24;98100.78;1792119;80;21005;-84
2021/12/20 05:37:16;;;;;;;3.40;3.10;;;;;;;1.05;93.94;98101.84;1791246;79;21029;-84
2021/12/20 05:39:44;;;;;;;2.30;2.10;;;;;;;1.05;93.86;98109.27;1790719;80;21820;-85
2021/12/20 05:42:11;;;;;;;2.83;2.55;;;;;;;1.05;93.81;98098.67;1790756;80;21096;-84
2021/12/20 05:44:37;;;;;;;2.67;2.00;;;;;;;1.04;93.48;98106.32;1768644;80;21043;-83
2021/12/20 05:47:04;;;;;;;1.87;1.77;;;;;;;1.02;93.46;98099.62;1790757;79;21066;-85
2021/12/20 05:49:31;;;;;;;2.70;2.50;;;;;;;0.99;93.24;98108.84;1794176;80;20986;-83
2021/12/20 05:51:59;;;;;;;3.70;1.80;;;;;;;0.96;93.33;98110.59;1763675;80;20998;-82
2021/12/20 05:54:25;;;;;;;2.85;2.50;;;;;;;0.98;93.45;98106.41;1787254;79;20963;-84
2021/12/20 05:56:53;;;;;;;3.35;3.05;;;;;;;0.99;93.42;98115.97;1783346;80;21085;-85
2021/12/20 05:59:20;;;;;;;4.42;3.08;;;;;;;0.98;93.33;98112.52;1785277;80;21043;-85
2021/12/20 06:01:46;;;;;;;4.08;2.75;;;;;;;1.00;93.31;98113.62;1767103;80;20972;-86
2021/12/20 06:04:12;;;;;;;3.42;3.12;;;;;;;0.97;93.21;98110.08;1784948;79;21106;-82
2021/12/20 06:06:40;;;;;;;2.47;2.27;;;;;;;0.95;93.03;98120.92;1762752;80;20924;-85
2021/12/20 06:09:08;;;;;;;2.72;2.25;;;;;;;0.95;92.99;98124.08;1787267;80;21034;-87
2021/12/20 06:11:35;;;;;;;2.40;2.20;;;;;;;0.94;93.08;98126.42;1790729;80;21600;-82
2021/12/20 06:14:02;;;;;;;2.30;2.10;;;;;;;0.95;93.19;98128.86;1767893;79;21047;-83
2021/12/20 06:16:30;;;;;;;5.20;3.40;;;;;;;0.96;93.20;98129.12;1784071;80;20979;-85
2021/12/20 06:18:56;;;;;;;8.75;3.35;;;;;;;0.95;93.10;98122.75;1766574;80;20975;-85
2021/12/20 06:21:24;;;;;;;2.55;2.33;;;;;;;0.95;93.20;98128.05;1768563;80;21034;-85
2021/12/20 06:23:53;;;;;;;2.58;2.05;;;;;;;0.91;93.29;98133.50;1768181;79;20982;-85
2021/12/20 06:26:23;;;;;;;4.90;2.90;;;;;;;0.92;93.42;98141.71;1788067;79;21559;-91
2021/12/20 06:28:50;;;;;;;5.20;3.25;;;;;;;0.93;93.53;98128.27;1807064;79;21140;-91
2021/12/20 06:31:18;;;;;;;4.70;2.73;;;;;;;0.93;93.60;98147.30;1809007;79;21491;-86
2021/12/20 06:33:45;;;;;;;11.57;3.13;;;;;;;0.92;93.62;98143.84;1810041;78;20942;-87
2021/12/20 06:36:12;;;;;;;4.17;3.37;;;;;;;0.94;93.68;98150.24;1781612;79;20919;-85
2021/12/20 06:38:44;;;;;;;4.50;3.03;;;;;;;0.93;93.80;98151.27;1782471;79;20966;-87
2021/12/20 06:41:07;;;;;;;3.75;2.62;;;;;;;0.93;93.86;98154.73;1808059;79;21105;-78
2021/12/20 06:43:34;;;;;;;2.62;2.25;;;;;;;0.93;93.90;98144.14;1819146;78;20923;-84
2021/12/20 06:46:02;;;;;;;4.60;2.80;;;;;;;0.95;93.85;98154.52;1833195;78;21515;-84
2021/12/20 06:48:31;;;;;;;3.33;3.00;;;;;;;0.96;93.85;98156.13;1784577;79;21050;-83
2021/12/20 06:50:57;;;;;;;4.55;2.90;;;;;;;0.98;93.85;98168.09;1749745;80;21018;-84
2021/12/20 06:53:24;;;;;;;3.08;2.62;;;;;;;0.98;93.84;98156.70;1775279;78;21081;-82
2021/12/20 06:55:53;;;;;;;4.08;3.00;;;;;;;0.99;93.90;98172.88;1833196;78;21015;-84
2021/12/20 06:58:20;;;;;;;3.20;2.75;;;;;;;1.01;93.86;98163.66;1779026;78;20966;-83
2021/12/20 07:00:46;;;;;;;3.00;2.35;;;;;;;1.01;93.79;98167.62;1808322;77;21535;-86
2021/12/20 07:03:12;;;;;;;5.08;3.00;;;;;;;0.99;93.50;98184.27;1788400;78;21065;-85
2021/12/20 07:05:40;;;;;;;2.95;2.27;;;;;;;0.98;93.46;98178.67;1833583;78;21066;-89
2021/12/20 07:08:06;;;;;;;3.27;2.72;;;;;;;0.99;93.54;98178.16;1801870;79;20943;-89
2021/12/20 07:10:33;;;;;;;3.62;2.85;;;;;;;1.00;93.60;98177.95;1780819;79;20942;-87
2021/12/20 07:13:01;;;;;;;3.05;2.17;;;;;;;1.02;93.75;98177.70;1781577;78;20997;-86
2021/12/20 07:15:28;;;;;;;3.52;2.10;;;;;;;1.05;93.74;98184.70;1806596;79;21029;-88
2021/12/20 07:17:54;;;;;;;2.20;2.00;;;;;;;1.03;93.62;98176.16;1807278;79;21145;-87
2021/12/20 07:20:25;;;;;;;2.52;2.10;;;;;;;1.03;93.60;98184.62;1809057;79;20961;-89
2021/12/20 07:22:52;;;;;;;3.50;2.27;;;;;;;1.03;93.74;98180.65;1810238;78;20973;-81
2021/12/20 07:25:21;;;;;;;2.15;1.92;;;;;;;1.03;93.80;98196.53;1781902;79;21074;-81
2021/12/20 07:27:49;;;;;;;2.10;1.75;;;;;;;1.02;93.64;98175.05;1797001;78;21079;-84
2021/12/20 07:30:15;;;;;;;2.45;2.05;;;;;;;1.04;93.76;98193.66;1789648;80;21736;-82
2021/12/20 07:32:43;;;;;;;4.80;2.65;;;;;;;1.03;93.86;98186.75;1789306;79;20901;-83
2021/12/20 07:35:13;;;;;;;2.87;2.58;;;;;;;1.02;94.06;98187.78;1790069;79;21012;-87
2021/12/20 07:37:39;;;;;;;4.08;2.20;;;;;;;1.02;94.27;98186.97;1766993;80;21000;-85
2021/12/20 07:40:07;;;;;;;4.20;3.33;;;;;;;1.02;94.50;98198.37;1762792;81;21023;-86
2021/12/20 07:42:35;;;;;;;2.75;2.25;;;;;;;1.04;94.86;98194.99;1753433;81;21094;-82
2021/12/20 07:45:02;;;;;;;3.15;2.50;;;;;;;1.05;95.11;98196.61;1784781;80;21641;-85
2021/12/20 07:47:50;;;;;;;4.97;3.42;;;;;;;1.09;95.24;98210.20;1784205;80;20945;-86
2021/12/20 07:50:19;;;;;;;2.62;2.42;;;;;;;1.12;95.34;98207.09;1783113;80;20988;-88
2021/12/20 07:52:46;;;;;;;3.50;2.42;;;;;;;1.14;95.32;98211.66;1791726;80;21043;-82
2021/12/20 07:55:13;;;;;;;5.28;3.30;;;;;;;1.16;95.18;98220.16;1766835;81;21107;-84
2021/12/20 07:57:59;;;;;;;3.92;2.50;;;;;;;1.16;95.15;98232.88;1789336;80;20962;-80
2021/12/20 08:00:27;;;;;;;4.50;2.75;;;;;;;1.18;95.01;98228.19;1725434;82;21125;-86
2021/12/20 08:03:12;;;;;;;2.98;2.75;;;;;;;1.18;94.94;98230.83;1766758;79;21035;-84
2021/12/20 08:05:39;;;;;;;2.33;2.10;;;;;;;1.16;94.95;98239.50;1774786;79;20971;-83
2021/12/20 08:08:23;;;;;;;3.50;2.50;;;;;;;1.15;95.11;98241.85;1797425;79;21173;-84
2021/12/20 08:11:09;;;;;;;5.97;3.83;;;;;;;1.13;95.27;98243.13;1770624;79;20940;-86
2021/12/20 08:13:55;;;;;;;2.95;2.30;;;;;;;1.09;95.47;98243.28;1800144;79;20984;-84
2021/12/20 08:16:22;;;;;;;3.12;2.83;;;;;;;1.07;95.56;98251.95;1802786;79;20989;-84
2021/12/20 08:18:49;;;;;;;4.17;3.20;;;;;;;1.07;95.61;98238.20;1782176;79;20992;-86
2021/12/20 08:21:15;;;;;;;2.70;2.50;;;;;;;1.08;95.73;98237.70;1757011;80;21585;-85
2021/12/20 08:23:43;;;;;;;2.62;2.45;;;;;;;1.10;95.84;98242.27;1765429;81;21023;-83
2021/12/20 08:26:10;;;;;;;3.33;3.00;;;;;;;1.11;95.88;98247.31;1770574;81;20988;-83
2021/12/20 08:28:36;;;;;;;2.90;2.55;;;;;;;1.12;95.93;98245.47;1757622;80;21045;-85
2021/12/20 08:31:06;;;;;;;3.08;2.60;;;;;;;1.14;95.88;98252.17;1746764;81;21043;-82
2021/12/20 08:33:36;;;;;;;4.65;2.90;;;;;;;1.14;95.69;98252.17;1794230;78;21479;-83
2021/12/20 08:36:05;;;;;;;4.17;3.08;;;;;;;1.16;95.47;98237.37;1800541;78;21533;-87
2021/12/20 08:38:31;;;;;;;4.33;3.65;;;;;;;1.17;95.50;98241.64;1788901;78;21617;-86
2021/12/20 08:41:00;;;;;;;3.45;3.15;;;;;;;1.19;95.30;98246.20;1783066;78;21027;-85
2021/12/20 08:43:47;;;;;;;3.47;3.17;;;;;;;1.24;95.30;98254.28;1816410;78;20924;-82
2021/12/20 08:46:15;;;;;;;5.03;3.45;;;;;;;1.26;94.57;98258.31;1825848;78;21564;-89
2021/12/20 08:48:43;;;;;;;3.92;2.70;;;;;;;1.28;94.43;98235.07;1739133;80;21551;-88
2021/12/20 08:51:09;;;;;;;3.77;3.17;;;;;;;1.32;94.41;98249.98;1747910;81;20934;-86
2021/12/20 08:53:37;;;;;;;5.67;4.00;;;;;;;1.36;94.13;98237.09;1713056;82;21062;-84
2021/12/20 08:56:25;;;;;;;4.97;3.50;;;;;;;1.36;93.26;98269.68;1738930;81;20996;-89
2021/12/20 08:58:52;;;;;;;3.67;3.37;;;;;;;1.37;93.07;98251.44;1732205;81;21088;-90
2021/12/20 09:01:21;;;;;;;5.35;3.58;;;;;;;1.37;92.63;98247.47;1758179;81;20986;-90
2021/12/20 09:03:49;;;;;;;3.95;3.35;;;;;;;1.38;92.62;98238.49;1756202;81;21073;-91
2021/12/20 09:06:17;;;;;;;7.67;4.58;;;;;;;1.39;92.62;98249.35;1634152;85;21055;-90
2021/12/20 09:09:02;;;;;;;3.35;2.62;;;;;;;1.37;91.95;98266.00;1687336;83;21071;-87
2021/12/20 09:11:31;;;;;;;3.67;2.70;;;;;;;1.37;91.67;98254.59;1746817;81;21136;-91
2021/12/20 09:14:01;;;;;;;4.60;3.22;;;;;;;1.40;91.78;98239.57;1688666;82;20996;-86
2021/12/20 09:16:29;;;;;;;3.25;2.83;;;;;;;1.41;91.71;98236.70;1734772;82;20944;-81
2021/12/20 09:18:57;;;;;;;3.98;3.22;;;;;;;1.43;91.74;98251.05;1736805;80;21098;-83
2021/12/20 09:21:25;;;;;;;4.28;3.47;;;;;;;1.43;91.59;98247.89;1692345;83;21126;-83
2021/12/20 09:23:56;;;;;;;3.10;2.80;;;;;;;1.46;91.59;98246.62;1707592;81;22346;-87
2021/12/20 09:26:26;;;;;;;4.05;3.65;;;;;;;1.48;91.31;98245.89;1706733;83;21045;-87
2021/12/20 09:28:56;;;;;;;4.42;3.70;;;;;;;1.47;91.30;98246.41;1755823;81;21020;-84
2021/12/20 09:31:23;;;;;;;5.67;3.90;;;;;;;1.48;91.02;98254.65;1729286;81;21018;-84
2021/12/20 09:33:55;;;;;;;3.70;2.98;;;;;;;1.48;90.92;98255.16;1710447;83;21101;-85
2021/12/20 09:36:28;;;;;;;3.15;2.85;;;;;;;1.50;91.03;98247.77;1719546;82;21169;-88
2021/12/20 09:38:54;;;;;;;4.28;3.67;;;;;;;1.51;91.00;98252.05;1760301;81;20975;-84
2021/12/20 09:42:00;;;;;;;5.65;4.08;;;;;;;1.53;90.94;98259.27;1685029;84;21012;-84
2021/12/20 09:43:58;;;;;;;5.12;3.62;;;;;;;1.54;90.90;98246.28;1721701;83;21081;-83
2021/12/20 09:46:28;;;;;;;4.15;2.75;;;;;;;1.56;90.93;98249.52;1680641;84;21102;-83
2021/12/20 09:49:00;;;;;;;4.95;3.50;;;;;;;1.56;90.77;98247.69;1630637;85;21046;-81
2021/12/20 09:51:30;;;;;;;5.67;3.30;;;;;;;1.55;90.59;98263.80;1709397;83;20946;-80
2021/12/20 09:53:59;;;;;;;5.50;3.77;;;;;;;1.56;90.44;98252.98;1680691;85;21085;-84
2021/12/20 09:56:29;;;;;;;5.03;3.20;;;;;;;1.55;90.30;98258.50;1706152;84;21033;-84
2021/12/20 09:58:57;;;;;;;4.28;3.87;;;;;;;1.58;90.32;98273.96;1736174;81;21026;-81
2021/12/20 10:01:26;;;;;;;5.75;2.37;;;;;;;1.60;90.05;98270.55;1714222;83;21107;-82
2021/12/20 10:03:53;;;;;;;3.15;2.70;;;;;;;1.62;89.60;98261.88;1732096;81;21535;-81
2021/12/20 10:06:20;;;;;;;5.33;2.35;;;;;;;1.63;89.02;98280.72;1684329;83;21593;-82
2021/12/20 10:08:51;;;;;;;2.67;2.47;;;;;;;1.60;88.17;98262.60;1710581;83;21105;-78
2021/12/20 10:11:33;;;;;;;3.20;2.05;;;;;;;1.60;88.18;98277.98;1717769;82;20954;-81
2021/12/20 10:14:09;;;;;;;2.90;2.60;;;;;;;1.61;87.50;98264.22;1696739;82;21144;-82
2021/12/20 10:16:40;;;;;;;3.17;2.40;;;;;;;1.66;87.54;98270.46;1736832;81;20946;-80
2021/12/20 10:19:34;;;;;;;1.92;1.77;;;;;;;1.72;87.34;98268.75;1717355;81;21109;-81
2021/12/20 10:22:28;;;;;;;2.60;2.40;;;;;;;1.77;86.78;98263.58;1679707;83;21105;-82
2021/12/20 10:24:58;;;;;;;2.98;2.62;;;;;;;1.83;86.59;98263.16;1710308;82;21006;-82
2021/12/20 10:27:36;;;;;;;2.50;1.85;;;;;;;1.87;86.12;98266.44;1684139;83;21851;-81
2021/12/20 10:30:27;;;;;;;2.10;2.00;;;;;;;1.94;86.07;98262.37;1717781;82;21581;-79
2021/12/20 10:32:53;;;;;;;2.27;2.08;;;;;;;1.97;85.34;98260.58;1681552;84;21013;-85
2021/12/20 10:35:32;;;;;;;2.35;2.15;;;;;;;2.00;84.75;98264.11;1726942;81;21060;-81
2021/12/20 10:38:26;;;;;;;2.85;1.82;;;;;;;2.01;84.45;98260.43;1708204;82;21555;-80
2021/12/20 10:41:18;;;;;;;3.65;2.27;;;;;;;2.05;84.01;98261.06;1710361;82;21133;-79
2021/12/20 10:43:54;;;;;;;3.83;2.42;;;;;;;2.14;83.80;98262.33;1724409;82;21005;-83
2021/12/20 10:46:45;;;;;;;3.10;2.72;;;;;;;2.21;83.63;98270.16;1728844;83;21041;-80
2021/12/20 10:49:14;;;;;;;6.83;4.75;;;;;;;2.25;83.29;98263.37;1705317;83;21038;-83
2021/12/20 10:51:51;;;;;;;7.40;5.45;;;;;;;2.25;82.48;98270.00;1710297;83;21075;-82
2021/12/20 10:54:31;;;;;;;8.08;6.03;;;;;;;2.21;80.89;98271.48;1685502;83;20974;-83
2021/12/20 10:57:01;;;;;;;5.30;3.77;;;;;;;2.16;80.13;98280.13;1664909;83;28212;-81
2021/12/20 10:59:31;;;;;;;1.90;1.80;;;;;;;2.11;79.92;98279.23;1730323;83;21063;-82
2021/12/20 11:04:58;;;;;;;2.20;2.00;;;;;;;2.06;79.44;98282.54;1731709;83;21104;-89
2021/12/20 11:10:06;;;;;;;2.37;1.95;;;;;;;2.07;79.13;98279.37;1705148;83;21036;-87
2021/12/20 11:12:34;;;;;;;2.15;1.95;;;;;;;2.07;79.40;98293.44;1704003;84;22288;-88
2021/12/20 11:15:10;;;;;;;3.67;2.00;;;;;;;2.02;78.94;98296.48;1708483;83;20942;-84
2021/12/20 11:17:43;;;;;;;2.55;1.75;;;;;;;1.96;79.00;98300.08;1729634;82;20939;-85
2021/12/20 11:20:12;;;;;;;1.82;1.72;;;;;;;1.89;79.00;98289.56;1689912;83;21116;-88
2021/12/20 11:22:38;;;;;;;2.70;2.50;;;;;;;1.87;78.93;98289.52;1680458;85;21045;-89
2021/12/20 11:25:12;;;;;;;1.75;1.65;;;;;;;1.87;79.20;98286.32;1697142;83;21075;-87
2021/12/20 11:27:46;;;;;;;2.33;2.22;;;;;;;1.91;79.33;98286.70;1723682;82;21029;-90
2021/12/20 11:30:23;;;;;;;4.95;2.75;;;;;;;1.95;79.47;98271.42;1739108;82;20986;-86
2021/12/20 11:32:55;;;;;;;2.60;2.37;;;;;;;2.04;79.65;98271.37;1711644;82;21108;-84
2021/12/20 11:35:26;;;;;;;4.47;2.70;;;;;;;2.12;79.67;98278.17;1704581;83;20974;-88
2021/12/20 11:38:00;;;;;;;3.52;2.42;;;;;;;2.20;79.74;98281.83;1733693;83;20936;-89
2021/12/20 11:40:27;;;;;;;2.58;2.37;;;;;;;2.27;79.67;98294.95;1741220;82;21005;-86
2021/12/20 11:42:58;;;;;;;5.62;2.95;;;;;;;2.30;79.06;98291.86;1762895;81;20923;-89
2021/12/20 11:45:24;;;;;;;3.25;2.95;;;;;;;2.31;78.57;98284.16;1701058;84;21333;-84
2021/12/20 11:48:13;;;;;;;2.55;2.35;;;;;;;2.27;78.33;98301.58;1730608;83;21542;-81
2021/12/20 11:50:56;;;;;;;3.77;2.75;;;;;;;2.22;78.45;98294.31;1730565;81;21066;-77
2021/12/20 11:53:40;;;;;;;5.25;4.75;;;;;;;2.22;78.79;98296.16;1703943;83;39479;-77
2021/12/20 11:56:06;;;;;;;6.72;5.42;;;;;;;2.16;79.47;98307.16;1728209;82;21064;-80
2021/12/20 11:58:38;;;;;;;5.30;4.75;;;;;;;1.99;79.98;98305.72;1727431;83;21010;-79
2021/12/20 12:01:16;;;;;;;5.03;3.20;;;;;;;1.74;81.08;98303.77;1746423;81;21019;-81
2021/12/20 12:03:57;;;;;;;4.87;4.12;;;;;;;1.59;81.79;98312.13;1715526;83;21004;-82
2021/12/20 12:06:28;;;;;;;5.83;4.60;;;;;;;1.47;82.16;98319.24;1730361;83;21010;-80
2021/12/20 12:08:59;;;;;;;9.03;5.75;;;;;;;1.26;82.98;98332.96;1730378;82;21045;-80